Time;durP1;ratioP1;P1;durP2;ratioP2;P2;SDS_P1;SDS_P2;PMS_P1;PMS_P2;Temp;Humidity;BMP_temperature;BMP_pressure;BME280_temperature;BME280_humidity;BME280_pressure;Samples;Min_cycle;Max_cycle;Signal;HPM_P1;HPM_P2
2022/01/15 00:01:14;;;;;;;;;;;0.80;93.30;;;0.28;100.00;100566.13;5013334;28;19921;-66
2022/01/15 00:03:40;;;;;;;;;;;0.70;93.40;;;0.24;100.00;100561.97;5014569;28;19924;-66
2022/01/15 00:06:06;;;;;;;;;;;0.70;93.60;;;0.24;100.00;100569.56;5013078;28;19951;-67
2022/01/15 00:08:32;;;;;;;;;;;0.70;93.70;;;0.24;100.00;100560.25;5012563;28;19921;-67
2022/01/15 00:10:57;;;;;;;;;;;0.70;93.90;;;0.21;100.00;100550.13;5012930;28;20342;-66
2022/01/15 00:13:30;;;;;;;;;;;0.70;94.00;;;0.10;100.00;100526.56;5014151;28;20290;-66
2022/01/15 00:16:07;;;;;;;;;;;0.70;94.10;;;0.13;100.00;100540.94;5014068;28;19967;-67
2022/01/15 00:18:44;;;;;;;;;;;0.70;94.20;;;0.01;100.00;100524.13;5012678;28;19917;-66
2022/01/15 00:21:11;;;;;;;;;;;0.70;94.20;;;0.06;100.00;100540.16;5013652;28;19917;-66
2022/01/15 00:23:37;;;;;;;;;;;0.60;94.20;;;0.15;100.00;100540.06;4996392;28;20477;-68
2022/01/15 00:26:02;;;;;;;;;;;0.70;94.30;;;0.24;100.00;100557.72;5012984;28;19918;-67
2022/01/15 00:28:28;;;;;;;;;;;0.70;93.90;;;0.26;100.00;100553.44;4996379;28;19965;-66
2022/01/15 00:30:54;;;;;;;;;;;0.70;93.40;;;0.24;100.00;100557.72;5013965;28;20363;-66
2022/01/15 00:33:20;;;;;;;;;;;0.60;93.30;;;0.17;100.00;100543.41;5013584;28;20287;-66
2022/01/15 00:35:45;;;;;;;;;;;0.60;93.40;;;0.22;100.00;100556.91;5012540;28;19925;-66
2022/01/15 00:38:11;;;;;;;;;;;0.70;93.40;;;0.24;100.00;100555.19;5012359;28;20254;-66
2022/01/15 00:40:37;;;;;;;;;;;0.70;93.50;;;0.25;100.00;100545.84;5014222;28;20313;-66
2022/01/15 00:43:03;;;;;;;;;;;0.60;93.60;;;0.23;100.00;100547.59;4996353;28;20009;-67
2022/01/15 00:45:32;;;;;;;;;;;0.70;93.70;;;0.24;100.00;100557.72;4995987;28;19922;-66
2022/01/15 00:47:58;;;;;;;;;;;0.70;93.80;;;0.20;100.00;100550.16;5013568;28;19918;-66
2022/01/15 00:50:24;;;;;;;;;;;0.60;93.80;;;0.14;100.00;100552.75;5014008;28;19967;-66
2022/01/15 00:52:50;;;;;;;;;;;0.60;93.90;;;-0.06;100.00;100540.28;5012602;28;19913;-66
2022/01/15 00:55:17;;;;;;;;;;;0.50;93.90;;;0.05;100.00;100548.63;5012356;28;20008;-66
2022/01/15 00:57:42;;;;;;;;;;;0.50;94.10;;;-0.19;100.00;100509.16;5012560;28;19924;-66
2022/01/15 01:00:10;;;;;;;;;;;0.50;94.20;;;-0.04;100.00;100547.03;5013495;28;19917;-66
2022/01/15 01:02:35;;;;;;;;;;;0.50;94.40;;;0.05;100.00;100558.78;5012105;28;19921;-66
2022/01/15 01:05:01;;;;;;;;;;;0.50;94.50;;;0.08;100.00;100550.28;5013687;28;19972;-66
2022/01/15 01:07:27;;;;;;;;;;;0.50;94.70;;;0.06;100.00;100546.94;5013124;28;19928;-66
2022/01/15 01:10:23;;;;;;;;;;;0.50;94.80;;;0.12;100.00;100544.31;5013227;28;19922;-66
2022/01/15 01:23:35;;;;;;;;;;;0.60;95.00;;;0.16;100.00;100543.44;5011702;28;19956;-67
2022/01/15 01:26:09;;;;;;;;;;;0.60;95.00;;;0.17;100.00;100533.25;5028662;28;19924;-66
2022/01/15 01:28:41;;;;;;;;;;;0.60;95.00;;;0.17;100.00;100534.94;5015958;28;19929;-65
2022/01/15 01:31:18;;;;;;;;;;;0.50;95.20;;;0.04;100.00;100515.66;5017047;28;20090;-66
2022/01/15 01:33:49;;;;;;;;;;;0.50;95.30;;;0.13;100.00;100525.69;5015940;28;20291;-66
2022/01/15 01:36:39;;;;;;;;;;;0.50;95.50;;;0.10;100.00;100518.94;5016679;28;19924;-65
2022/01/15 01:39:11;;;;;;;;;;;0.50;95.60;;;0.10;100.00;100528.25;5016081;28;19922;-66
2022/01/15 01:41:41;;;;;;;;;;;0.50;95.70;;;-0.09;100.00;100499.75;5016795;28;20394;-66
2022/01/15 01:44:09;;;;;;;;;;;0.50;95.80;;;0.07;100.00;100526.63;5016882;28;19961;-66
2022/01/15 01:46:42;;;;;;;;;;;0.40;95.80;;;0.00;100.00;100512.31;5015606;28;19921;-66
2022/01/15 01:49:10;;;;;;;;;;;0.40;95.90;;;-0.01;100.00;100515.72;5015826;28;20358;-66
2022/01/15 01:51:39;;;;;;;;;;;0.40;96.00;;;-0.01;100.00;100528.41;5015465;28;19920;-65
2022/01/15 01:54:06;;;;;;;;;;;0.40;96.20;;;-0.05;100.00;100516.59;5016897;28;19921;-66
2022/01/15 01:56:33;;;;;;;;;;;0.40;96.30;;;-0.25;100.00;100481.31;5016669;28;19917;-66
2022/01/15 01:58:58;;;;;;;;;;;0.40;96.40;;;-0.27;100.00;100487.25;5016664;28;19964;-65
2022/01/15 02:01:24;;;;;;;;;;;0.40;96.40;;;-0.11;100.00;100532.72;5016260;28;19917;-65
2022/01/15 02:03:50;;;;;;;;;;;0.30;96.30;;;-0.17;100.00;100504.06;5015568;28;19971;-65
2022/01/15 02:06:17;;;;;;;;;;;0.30;96.40;;;-0.35;100.00;100491.56;4998891;28;20396;-65
2022/01/15 02:08:42;;;;;;;0.40;0.40;;;0.30;96.50;;;-0.20;100.00;100491.41;4998775;28;19967;-66
2022/01/15 02:11:08;;;;;;;6.40;4.83;;;0.30;96.60;;;-0.12;100.00;100517.53;4998397;28;20296;-65
2022/01/15 02:13:40;;;;;;;8.03;5.77;;;0.30;96.70;;;-0.09;100.00;100520.03;5015831;28;20189;-66
2022/01/15 02:16:06;;;;;;;7.67;6.30;;;0.30;96.60;;;-0.15;100.00;100502.31;5016157;28;20185;-65
2022/01/15 02:18:33;;;;;;;8.67;7.53;;;0.30;96.60;;;-0.12;100.00;100514.97;5014325;28;20622;-65
2022/01/15 02:23:32;;;;;;;10.52;7.15;;;0.30;96.70;;;-0.36;100.00;100477.22;5015998;28;20178;-66
2022/01/15 02:23:51;;;;;;;8.97;7.20;;;0.30;97.20;;;-0.08;100.00;100514.91;5001323;28;20189;-65
2022/01/15 02:26:24;;;;;;;16.20;7.80;;;0.40;97.00;;;-0.36;100.00;100459.47;5014451;28;20208;-65
2022/01/15 02:28:55;;;;;;;10.47;8.40;;;0.30;97.10;;;-0.32;100.00;100469.53;5014961;28;20196;-65
2022/01/15 02:31:22;;;;;;;9.43;6.63;;;0.40;97.30;;;-0.13;100.00;100500.63;5014095;28;20204;-66
2022/01/15 02:33:50;;;;;;;8.97;7.60;;;0.30;97.30;;;-0.27;100.00;100466.97;5014546;28;20247;-66
2022/01/15 02:36:21;;;;;;;8.83;7.10;;;0.30;97.40;;;-0.14;100.00;100489.63;5014336;28;20189;-65
2022/01/15 02:38:47;;;;;;;9.32;6.97;;;0.40;97.60;;;-0.10;100.00;100498.06;5014156;28;20196;-66
2022/01/15 02:41:13;;;;;;;9.70;7.25;;;0.30;97.70;;;-0.23;100.00;100488.88;5014336;28;20721;-66
2022/01/15 02:43:39;;;;;;;10.98;8.65;;;0.30;97.80;;;-0.13;100.00;100482.88;5014203;28;20189;-65
2022/01/15 02:48:00;;;;;;;8.35;7.30;;;0.30;97.80;;;-0.10;100.00;100493.81;5015477;28;20250;-66
2022/01/15 02:49:10;;;;;;;9.15;6.53;;;0.40;97.90;;;-0.01;100.00;100491.19;5014255;28;20208;-65
2022/01/15 02:51:36;;;;;;;10.57;7.47;;;0.40;97.90;;;-0.38;100.00;100442.56;5014629;28;20229;-65
2022/01/15 02:54:03;;;;;;;11.15;7.55;;;0.40;97.80;;;-0.06;100.00;100485.31;4998377;28;20192;-65
2022/01/15 02:56:37;;;;;;;8.50;6.75;;;0.40;97.70;;;-0.15;100.00;100477.81;5013656;28;20585;-66
2022/01/15 02:59:05;;;;;;;9.00;6.68;;;0.40;97.60;;;-0.17;100.00;100483.78;4998284;28;20196;-65
2022/01/15 03:01:31;;;;;;;10.77;8.00;;;0.40;97.60;;;-0.11;100.00;100489.59;5013881;28;20181;-65
2022/01/15 03:03:57;;;;;;;9.80;7.37;;;0.40;97.60;;;-0.22;100.00;100476.19;5013726;28;20597;-65
2022/01/15 03:06:23;;;;;;;12.10;8.18;;;0.40;97.60;;;-0.32;100.00;100464.47;5014891;28;20243;-65
2022/01/15 03:08:50;;;;;;;10.77;7.82;;;0.40;97.60;;;-0.07;100.00;100462.50;5013510;28;20713;-65
2022/01/15 03:11:16;;;;;;;10.63;8.07;;;0.40;97.50;;;-0.15;100.00;100461.75;4997361;28;20213;-65
2022/01/15 03:13:42;;;;;;;8.87;6.80;;;0.30;97.10;;;-0.08;100.00;100459.13;4997148;28;20612;-65
2022/01/15 03:16:15;;;;;;;9.30;7.33;;;0.30;97.00;;;-0.16;100.00;100444.84;5014936;28;20193;-65
2022/01/15 03:18:41;;;;;;;8.43;7.10;;;0.30;97.00;;;-0.15;100.00;100456.66;4998142;28;20189;-65
2022/01/15 03:21:07;;;;;;;10.30;7.67;;;0.30;97.00;;;-0.16;100.00;100452.44;5013458;28;20271;-65
2022/01/15 03:23:33;;;;;;;7.27;6.10;;;0.30;97.20;;;-0.17;100.00;100455.88;5014461;28;20197;-65
2022/01/15 03:25:59;;;;;;;10.07;7.20;;;0.30;97.30;;;-0.16;100.00;100453.28;5013592;28;20188;-65
2022/01/15 03:28:24;;;;;;;7.30;5.73;;;0.30;97.40;;;-0.19;100.00;100452.50;4997195;28;20597;-65
2022/01/15 03:30:50;;;;;;;6.57;5.13;;;0.30;97.30;;;-0.33;100.00;100439.16;4996812;28;20642;-65
2022/01/15 03:33:16;;;;;;;;;;;0.20;97.20;;;-0.21;100.00;100451.69;5015004;28;20200;-65
2022/01/15 03:35:42;;;;;;;;;;;0.30;97.30;;;-0.11;100.00;100453.25;4997247;28;20378;-65
2022/01/15 03:38:08;;;;;;;;;;;0.30;97.30;;;-0.50;100.00;100407.22;5014084;28;20371;-65
2022/01/15 03:40:34;;;;;;;;;;;0.30;97.40;;;-0.62;100.00;100376.94;5013338;28;19917;-65
2022/01/15 03:42:59;;;;;;;;;;;0.30;97.40;;;-0.35;100.00;100398.59;5013513;28;20314;-65
2022/01/15 03:45:25;;;;;;;;;;;0.30;97.30;;;-0.09;100.00;100447.31;5014276;28;19921;-65
2022/01/15 03:47:51;;;;;;;;;;;0.40;97.30;;;-0.29;100.00;100408.66;5013561;28;19917;-65
2022/01/15 03:50:17;;;;;;;;;;;0.40;97.30;;;-0.14;100.00;100454.13;5012987;28;20287;-66
2022/01/15 03:52:43;;;;;;;;;;;0.50;97.20;;;-0.70;100.00;100355.91;5014163;28;19944;-65
2022/01/15 03:55:09;;;;;;;;;;;0.40;97.00;;;-0.08;100.00;100448.13;5013323;28;19917;-65
2022/01/15 03:57:35;;;;;;;;;;;0.40;96.90;;;-0.06;100.00;100436.28;5029485;28;20037;-65
2022/01/15 04:00:01;;;;;;;;;;;0.50;96.90;;;-0.40;100.00;100398.63;5013191;28;19924;-65
2022/01/15 04:02:27;;;;;;;;;;;0.50;96.90;;;-0.07;100.00;100432.91;5014037;28;19921;-65
2022/01/15 04:04:53;;;;;;;;;;;0.50;96.90;;;-0.34;100.00;100387.59;5014468;28;19921;-65
2022/01/15 04:07:19;;;;;;;;;;;0.50;96.80;;;-0.38;100.00;100403.69;5013324;28;19929;-66
2022/01/15 04:09:44;;;;;;;;;;;0.50;96.80;;;-0.22;100.00;100401.81;5012609;28;20382;-65
2022/01/15 04:12:10;;;;;;;;;;;0.50;96.80;;;0.05;100.00;100444.59;4996428;28;19917;-66
2022/01/15 04:14:36;;;;;;;;;;;0.50;96.60;;;0.06;100.00;100440.38;5013856;28;19918;-65
2022/01/15 04:17:02;;;;;;;;;;;0.50;96.60;;;-0.07;100.00;100437.97;5029206;28;19917;-65
2022/01/15 04:19:29;;;;;;;;;;;0.40;96.40;;;-0.20;100.00;100426.31;5012913;28;19917;-65
2022/01/15 04:21:55;;;;;;;;;;;0.40;96.40;;;-0.05;100.00;100430.34;5013181;28;19924;-65
2022/01/15 04:24:20;;;;;;;;;;;0.40;96.50;;;0.04;100.00;100431.94;5013990;28;19918;-66
2022/01/15 04:26:47;;;;;;;;;;;0.40;96.60;;;-0.32;100.00;100372.34;5013131;28;19924;-65
2022/01/15 04:29:15;;;;;;;;;;;0.40;96.70;;;-0.15;100.00;100416.09;5012681;28;19917;-66
2022/01/15 04:31:48;;;;;;;;;;;0.40;96.70;;;-0.12;100.00;100414.38;5012567;28;19917;-65
2022/01/15 04:34:32;;;;;;;;;;;0.40;96.80;;;-0.27;100.00;100395.97;4997742;28;19948;-65
2022/01/15 04:37:13;;;;;;;;;;;0.40;96.80;;;-0.49;100.00;100360.72;5013848;28;20379;-66
2022/01/15 04:39:40;;;;;;;;;;;0.30;97.20;;;-0.39;100.00;100382.56;5013539;28;19921;-65
2022/01/15 04:42:06;;;;;;;;;;;0.30;97.00;;;-0.61;100.00;100358.34;5012689;28;19917;-65
2022/01/15 04:44:32;;;;;;;;;;;0.20;97.10;;;-0.16;100.00;100422.00;5013589;28;19940;-66
2022/01/15 04:46:59;;;;;;;;;;;0.30;97.30;;;-0.15;100.00;100414.41;5013857;28;19971;-65
2022/01/15 04:49:25;;;;;;;;;;;0.20;97.30;;;-0.11;100.00;100422.81;5013694;28;20333;-64
2022/01/15 04:51:50;;;;;;;;;;;0.20;97.40;;;-0.15;100.00;100406.78;5012456;28;19917;-65
2022/01/15 04:54:16;;;;;;;;;;;0.20;97.50;;;-0.16;100.00;100404.25;5013765;28;20375;-65
2022/01/15 04:56:42;;;;;;;;;;;0.30;97.60;;;-0.07;100.00;100409.22;5028741;28;19925;-65
2022/01/15 04:59:08;;;;;;;;;;;0.40;97.70;;;-0.13;100.00;100406.78;5012883;28;19918;-65
2022/01/15 05:01:33;;;;;;;;;;;0.40;97.70;;;-0.03;100.00;100419.34;5013002;28;20279;-65
2022/01/15 05:03:59;;;;;;;;;;;0.40;97.70;;;-0.05;100.00;100423.59;5017959;28;19917;-65
2022/01/15 05:06:25;;;;;;;;;;;0.40;97.60;;;-0.28;100.00;100424.72;5017667;28;19922;-65
2022/01/15 05:09:01;;;;;;;;;;;0.30;97.20;;;-0.16;100.00;100435.53;5016396;28;19922;-65
2022/01/15 05:11:31;;;;;;;;;;;0.20;97.20;;;-0.08;100.00;100433.75;5017392;28;19917;-65
2022/01/15 05:13:57;;;;;;;;;;;0.30;97.40;;;-0.13;100.00;100435.50;5017664;28;19921;-66
2022/01/15 05:16:22;;;;;;;;;;;0.20;97.50;;;-0.09;100.00;100441.41;5017564;28;19918;-66
2022/01/15 05:18:48;;;;;;;;;;;0.30;97.60;;;-0.19;100.00;100425.44;5016323;28;20382;-65
2022/01/15 05:21:14;;;;;;;;;;;0.30;97.60;;;-0.17;100.00;100438.13;5017309;28;19924;-65
2022/01/15 05:23:40;;;;;;;;;;;0.20;97.60;;;-0.27;100.00;100437.38;5015869;28;19917;-65
2022/01/15 05:26:05;;;;;;;;;;;0.20;97.60;;;-0.14;100.00;100438.91;5016197;28;19917;-65
2022/01/15 05:28:31;;;;;;;;;;;0.20;97.70;;;-0.39;100.00;100410.47;5017269;28;20358;-65
2022/01/15 05:30:57;;;;;;;;;;;0.30;97.80;;;0.00;100.00;100437.03;5017104;28;19972;-65
2022/01/15 05:33:23;;;;;;;;;;;0.30;97.90;;;0.05;100.00;100437.00;5017085;28;19913;-65
2022/01/15 05:35:48;;;;;;;;;;;0.40;98.00;;;-0.21;100.00;100409.41;5015890;28;19914;-65
2022/01/15 05:38:14;;;;;;;;;;;0.40;97.80;;;-0.01;100.00;100437.91;5017457;28;19925;-65
2022/01/15 05:40:40;;;;;;;;;;;0.40;97.80;;;-0.04;100.00;100442.19;5015585;28;19918;-65
2022/01/15 05:43:05;;;;;;;;;;;0.40;97.70;;;-0.38;100.00;100370.75;5017086;28;19922;-65
2022/01/15 05:45:32;;;;;;;;;;;0.40;97.70;;;0.03;100.00;100431.09;5015745;28;19932;-65
2022/01/15 05:47:58;;;;;;;;;;;0.40;97.60;;;0.06;100.00;100438.69;5015741;28;19948;-65
2022/01/15 05:50:23;;;;;;;;;;;0.40;97.50;;;-0.28;100.00;100384.16;5016778;28;19923;-65
2022/01/15 05:52:49;;;;;;;;;;;0.40;97.50;;;0.00;100.00;100433.69;5016471;28;19918;-65
2022/01/15 05:55:15;;;;;;;;;;;0.40;97.40;;;0.08;100.00;100438.66;5016846;28;19963;-65
2022/01/15 05:57:40;;;;;;;;;;;0.40;97.40;;;-0.05;100.00;100407.53;5016563;28;19932;-65
2022/01/15 06:00:07;;;;;;;;;;;0.40;97.50;;;-0.05;100.00;100413.44;5017047;28;19923;-65
2022/01/15 06:02:33;;;;;;;;;;;0.50;97.80;;;0.03;100.00;100431.09;5016451;28;19987;-65
2022/01/15 06:04:58;;;;;;;;;;;0.40;97.50;;;-0.30;100.00;100375.72;5016514;28;20367;-65
2022/01/15 06:07:24;;;;;;;;;;;0.40;97.60;;;0.00;100.00;100431.16;4999150;28;19943;-65
2022/01/15 06:09:50;;;;;;;;;;;0.40;97.60;;;-0.23;100.00;100378.16;5016390;28;20297;-65
2022/01/15 06:12:16;;;;;;;;;;;0.40;97.70;;;-0.21;100.00;100389.13;5015829;28;19928;-66
2022/01/15 06:14:41;;;;;;;;;;;0.50;97.90;;;-0.03;100.00;100426.09;5016404;28;19917;-65
2022/01/15 06:17:10;;;;;;;;;;;0.50;97.90;;;0.02;100.00;100431.94;4998967;28;19924;-65
2022/01/15 06:19:36;;;;;;;;;;;0.50;97.90;;;0.03;100.00;100428.56;5014858;28;19929;-65
2022/01/15 06:22:03;;;;;;;;;;;0.50;97.80;;;-0.15;100.00;100389.03;5016582;28;19925;-65
2022/01/15 06:24:28;;;;;;;;;;;0.60;97.80;;;0.14;100.00;100431.81;5016461;28;19918;-66
2022/01/15 06:26:54;;;;;;;;;;;0.60;97.70;;;0.16;100.00;100427.56;5014911;28;19963;-65
2022/01/15 06:29:20;;;;;;;;;;;0.60;97.60;;;0.17;100.00;100424.13;5014897;28;19968;-65
2022/01/15 06:31:46;;;;;;;;;;;0.60;97.60;;;0.12;100.00;100415.75;5015751;28;20024;-67
2022/01/15 06:34:12;;;;;;;;;;;0.70;97.60;;;0.25;100.00;100426.56;5015928;28;19918;-65
2022/01/15 06:36:38;;;;;;;;;;;0.70;97.60;;;0.28;100.00;100432.44;5014552;28;20309;-65
2022/01/15 06:39:03;;;;;;;;;;;0.70;97.50;;;0.13;100.00;100401.38;5014504;28;19922;-65
2022/01/15 06:41:29;;;;;;;;;;;0.70;97.60;;;0.20;100.00;100419.03;5031634;28;20354;-65
2022/01/15 06:43:55;;;;;;;;;;;0.70;97.50;;;-0.12;100.00;100401.69;5015636;28;19921;-65
2022/01/15 06:46:21;;;;;;;;;;;0.70;97.40;;;-0.27;100.00;100363.84;5016079;28;19972;-65
2022/01/15 06:48:46;;;;;;;;;;;0.60;97.30;;;0.02;100.00;100410.81;5014346;28;20299;-65
2022/01/15 06:51:12;;;;;;;;;;;0.60;97.20;;;-0.09;100.00;100416.03;5015907;28;19917;-65
2022/01/15 06:53:38;;;;;;;;;;;0.60;97.20;;;-0.08;100.00;100412.63;5015665;28;19918;-65
2022/01/15 06:56:04;;;;;;;;;;;0.50;97.20;;;-0.49;100.00;100377.63;5014647;28;19996;-65
2022/01/15 06:58:30;;;;;;;;;;;0.50;97.20;;;-0.52;100.00;100375.13;5014474;28;19921;-65
2022/01/15 07:00:55;;;;;;;;;;;0.40;97.00;;;-0.12;100.00;100411.00;5015376;28;19922;-65
2022/01/15 07:03:21;;;;;;;;;;;0.40;97.00;;;-0.06;100.00;100413.44;5014141;28;19917;-65
2022/01/15 07:05:47;;;;;;;;;;;0.40;97.30;;;-0.35;100.00;100370.72;5015434;28;19921;-65
2022/01/15 07:08:13;;;;;;;;;;;0.40;97.00;;;-0.16;100.00;100400.03;5015031;28;20333;-64
2022/01/15 07:10:39;;;;;;;;;;;0.50;97.10;;;-0.15;100.00;100403.41;5015411;28;19932;-65
2022/01/15 07:13:06;;;;;;;;;;;0.50;97.10;;;-0.12;100.00;100416.06;5014241;28;19921;-65
2022/01/15 07:15:32;;;;;;;;;;;0.40;97.00;;;-0.73;100.00;100292.56;5015156;28;20440;-65
2022/01/15 07:17:59;;;;;;;;;;;0.50;97.10;;;-0.03;100.00;100409.19;5014962;28;19917;-65
2022/01/15 07:20:25;;;;;;;;;;;0.50;97.10;;;-0.22;100.00;100389.97;5014216;28;19917;-65
2022/01/15 07:22:51;;;;;;;;;;;0.50;97.10;;;-0.04;100.00;100415.13;5013727;28;20020;-65
2022/01/15 07:25:16;;;;;;;;;;;0.50;97.10;;;-0.10;100.00;100399.97;5014440;28;19917;-65
2022/01/15 07:27:42;;;;;;;;;;;0.50;97.10;;;-0.29;100.00;100416.28;5013672;28;19940;-65
2022/01/15 07:30:10;;;;;;;;;;;0.40;97.10;;;-0.40;100.00;100406.25;5013916;28;20255;-65
2022/01/15 07:32:35;;;;;;;;;;;0.30;97.10;;;-0.13;100.00;100405.09;5013472;28;20024;-65
2022/01/15 07:35:01;;;;;;;;;;;0.30;97.00;;;-0.12;100.00;100391.53;5015078;28;20329;-65
2022/01/15 07:37:27;;;;;;;;;;;0.40;97.10;;;-0.09;100.00;100376.31;5014901;28;19921;-65
2022/01/15 07:39:53;;;;;;;;;;;0.50;97.10;;;-0.14;100.00;100367.88;5013438;28;19913;-65
2022/01/15 07:42:19;;;;;;;;;;;0.50;97.00;;;0.15;100.00;100414.88;5014767;28;19928;-65
2022/01/15 07:44:45;;;;;;;;;;;0.60;97.10;;;0.09;100.00;100408.16;5014857;28;19971;-65
2022/01/15 07:47:12;;;;;;;;;;;0.60;97.40;;;0.13;100.00;100404.75;5013429;28;20322;-65
2022/01/15 07:49:38;;;;;;;;;;;0.60;97.00;;;0.17;100.00;100410.59;5013412;28;19917;-65
2022/01/15 07:52:04;;;;;;;;;;;0.60;97.00;;;0.18;100.00;100397.06;5014875;28;19918;-65
2022/01/15 07:54:30;;;;;;;;;;;0.70;97.10;;;0.13;100.00;100393.75;5014602;28;19918;-65
2022/01/15 07:56:55;;;;;;;;;;;0.70;96.90;;;0.15;100.00;100409.81;5013063;28;19925;-65
2022/01/15 07:59:22;;;;;;;;;;;0.70;96.90;;;-0.07;100.00;100378.78;5014766;28;19917;-65
2022/01/15 08:01:48;;;;;;;;;;;0.70;96.90;;;0.05;100.00;100393.88;4996618;28;19921;-65
2022/01/15 08:04:13;;;;;;;;;;;0.70;96.80;;;-0.25;100.00;100356.22;5013172;28;19925;-65
2022/01/15 08:06:41;;;;;;;;;;;0.60;96.80;;;-0.06;100.00;100375.41;5013047;28;19918;-65
2022/01/15 08:09:07;;;;;;;;;;;0.60;96.80;;;-0.21;100.00;100381.50;5012913;28;20396;-65
2022/01/15 08:11:34;;;;;;;;;;;0.60;96.80;;;0.02;100.00;100398.13;5013164;28;19976;-65
2022/01/15 08:13:59;;;;;;;;;;;0.50;96.70;;;0.09;100.00;100389.56;5012858;28;19922;-65
2022/01/15 08:16:25;;;;;;;;;;;0.60;96.70;;;0.07;100.00;100374.41;5014227;28;20410;-65
2022/01/15 08:18:51;;;;;;;;;;;0.60;96.60;;;0.27;100.00;100390.16;5013909;28;19921;-65
2022/01/15 08:21:17;;;;;;;;;;;0.70;96.60;;;0.22;100.00;100383.47;5012875;28;19921;-65
2022/01/15 08:23:43;;;;;;;;;;;0.70;96.60;;;0.20;100.00;100388.56;4996426;28;19925;-65
2022/01/15 08:26:08;;;;;;;;;;;0.70;96.50;;;-0.12;100.00;100339.97;5014020;28;20342;-65
2022/01/15 08:28:34;;;;;;;;;;;0.70;96.60;;;0.10;100.00;100387.00;4996408;28;20363;-65
2022/01/15 08:31:00;;;;;;;;;;;0.70;96.60;;;0.04;100.00;100366.81;5013954;28;19925;-65
2022/01/15 08:33:26;;;;;;;;;;;0.70;96.60;;;0.33;100.00;100382.44;5013032;28;20418;-65
2022/01/15 08:35:51;;;;;;;;;;;0.80;96.70;;;0.27;100.00;100382.53;5013811;28;19917;-65
2022/01/15 08:38:17;;;;;;;;;;;0.80;96.60;;;-0.01;100.00;100350.84;5013737;28;19929;-65
2022/01/15 08:40:43;;;;;;;;;;;0.80;96.60;;;0.04;100.00;100330.47;5012740;28;19918;-65
2022/01/15 08:43:09;;;;;;;;;;;0.80;96.60;;;0.34;100.00;100376.50;5028922;28;20304;-65
2022/01/15 08:45:36;;;;;;;;;;;0.80;96.70;;;0.43;100.00;100372.16;5013927;28;19917;-65
2022/01/15 08:48:02;;;;;;;;;;;0.90;96.80;;;0.46;100.00;100374.66;5012459;28;19917;-65
2022/01/15 08:50:28;;;;;;;;;;;1.00;96.80;;;0.49;100.00;100378.00;5012675;28;20434;-65
2022/01/15 08:52:54;;;;;;;;;;;1.00;96.60;;;0.29;100.00;100372.38;5012397;28;19924;-65
2022/01/15 08:55:20;;;;;;;;;;;1.00;96.50;;;0.32;100.00;100364.72;5012485;28;19918;-65
2022/01/15 08:57:46;;;;;;;;;;;1.00;96.30;;;0.47;100.00;100372.13;5013213;28;20436;-65
2022/01/15 09:00:15;;;;;;;;;;;0.90;96.10;;;0.52;100.00;100370.31;5012673;28;20023;-65
2022/01/15 09:02:40;;;;;;;;;;;1.00;96.20;;;0.44;100.00;100377.22;4996217;28;20278;-65
2022/01/15 09:05:07;;;;;;;;;;;1.10;96.10;;;0.40;100.00;100372.22;5012507;28;19925;-65
2022/01/15 09:07:32;;;;;;;;;;;1.00;96.10;;;0.27;100.00;100372.41;5013530;28;19917;-65
2022/01/15 09:09:58;;;;;;;;;;;1.00;96.20;;;0.58;100.00;100375.31;5011930;28;19971;-65
2022/01/15 09:12:24;;;;;;;;;;;1.10;96.30;;;0.59;100.00;100371.06;5012170;28;19943;-65
2022/01/15 09:14:52;;;;;;;;;;;1.10;96.40;;;0.59;100.00;100378.69;5013425;28;19984;-65
2022/01/15 09:17:19;;;;;;;;;;;1.20;96.40;;;0.58;100.00;100369.38;5013999;28;20286;-65
2022/01/15 09:19:45;;;;;;;;;;;1.20;96.30;;;0.54;100.00;100368.59;5012342;28;19918;-65
2022/01/15 09:22:11;;;;;;;;;;;1.20;96.20;;;0.60;100.00;100387.97;5012124;28;19921;-65
2022/01/15 09:24:37;;;;;;;;;;;1.30;96.20;;;0.32;100.00;100316.50;5012151;28;19917;-65
2022/01/15 09:30:12;;;;;;;;;;;1.30;96.00;;;0.66;100.00;100368.41;5011956;28;20062;-65
2022/01/15 09:32:34;;;;;;;;;;;1.30;95.80;;;0.77;100.00;100376.69;4998584;28;19967;-65
2022/01/15 09:35:01;;;;;;;;;;;1.40;95.90;;;0.51;100.00;100337.34;5012894;28;20011;-65
2022/01/15 09:37:26;;;;;;;;;;;1.40;95.80;;;0.67;100.00;100343.84;5012217;28;19917;-65
2022/01/15 09:39:52;;;;;;;;;;;1.40;95.80;;;0.45;100.00;100347.59;5011999;28;20256;-65
2022/01/15 09:42:19;;;;;;;;;;;1.50;95.80;;;0.83;100.00;100359.66;4995728;28;19964;-65
2022/01/15 09:44:45;;;;;;;;;;;1.50;95.70;;;0.86;100.00;100378.25;5011873;28;19924;-65
2022/01/15 09:47:11;;;;;;;;;;;1.50;95.60;;;0.77;100.00;100376.69;5014037;28;19917;-65
2022/01/15 09:49:37;;;;;;;;;;;1.50;95.40;;;0.71;100.00;100355.66;5016998;28;19924;-65
2022/01/15 09:52:03;;;;;;;;;;;1.50;95.30;;;0.71;100.00;100370.88;4998874;28;20015;-65
2022/01/15 09:54:29;;;;;;;;;;;1.50;95.20;;;1.00;100.00;100367.84;5015883;28;19925;-65
2022/01/15 09:56:54;;;;;;;;;;;1.60;95.30;;;0.96;100.00;100369.59;5015067;28;19917;-65
2022/01/15 09:59:21;;;;;;;;;;;1.60;95.20;;;1.07;100.00;100365.16;5016728;28;20381;-65
2022/01/15 10:01:47;;;;;;;;;;;1.60;95.10;;;0.96;100.00;100339.13;5016497;28;19921;-65
2022/01/15 10:04:13;;;;;;;;;;;1.70;95.20;;;1.30;100.00;100366.47;4999340;28;19913;-65
2022/01/15 10:07:11;;;;;;;;;;;1.70;95.20;;;1.01;100.00;100364.44;5016319;28;19918;-65
2022/01/15 10:09:37;;;;;;;;;;;1.70;95.10;;;1.10;100.00;100361.72;5016749;28;19921;-65
2022/01/15 10:12:03;;;;;;;;;;;1.60;95.30;;;0.95;100.00;100344.22;4998596;28;20286;-65
2022/01/15 10:14:33;;;;;;;;;;;1.50;95.20;;;0.97;100.00;100319.63;5015409;28;19917;-65
2022/01/15 10:17:01;;;;;;;;;;;1.50;95.60;;;0.90;100.00;100313.81;4999070;28;19917;-65
2022/01/15 10:19:32;;;;;;;;;;;1.50;95.90;;;1.25;100.00;100348.72;5016411;28;19940;-65
2022/01/15 10:22:11;;;;;;;;;;;1.60;96.10;;;1.25;100.00;100341.09;5016192;28;19989;-66
2022/01/15 10:24:38;;;;;;;;;;;1.70;96.20;;;1.38;100.00;100356.97;4999052;28;19920;-65
2022/01/15 10:27:16;;;;;;;;;;;1.70;96.30;;;1.39;100.00;100340.84;5015008;28;19917;-65
2022/01/15 10:29:42;;;;;;;;;;;1.80;96.40;;;1.39;100.00;100333.22;4998766;28;19971;-65
2022/01/15 10:32:12;;;;;;;;;;;1.80;96.50;;;1.44;100.00;100311.91;5016018;28;19917;-65
2022/01/15 10:34:39;;;;;;;;;;;2.00;96.70;;;1.63;100.00;100330.19;5016139;28;19933;-65
2022/01/15 10:37:18;;;;;;;;;;;2.10;96.60;;;1.58;100.00;100320.97;4998223;28;20367;-65
2022/01/15 10:39:53;;;;;;;;;;;2.10;96.20;;;1.47;100.00;100329.66;4982930;28;20016;-65
2022/01/15 10:42:23;;;;;;;;;;;2.10;96.20;;;1.58;100.00;100323.50;5014895;28;19986;-65
2022/01/15 10:44:51;;;;;;;;;;;2.10;96.30;;;1.73;100.00;100320.66;5015685;28;20398;-65
2022/01/15 10:47:17;;;;;;;;;;;2.20;96.40;;;1.53;100.00;100293.09;5014807;28;19964;-65
2022/01/15 10:49:43;;;;;;;;;;;2.20;96.40;;;1.18;100.00;100229.41;5015876;28;19917;-65
2022/01/15 10:52:22;;;;;;;;;;;2.20;96.10;;;1.62;100.00;100303.09;4997907;28;19917;-65
2022/01/15 10:55:09;;;;;;;;;;;2.20;96.10;;;1.71;100.00;100299.50;5015418;28;19917;-65
2022/01/15 10:57:39;;;;;;;;;;;2.10;96.00;;;1.63;100.00;100289.50;5015622;28;19913;-65
2022/01/15 11:00:28;;;;;;;;;;;2.20;95.90;;;1.50;100.00;100283.81;5012838;28;20390;-65
2022/01/15 11:03:00;;;;;;;;;;;2.20;96.00;;;1.63;100.00;100279.31;5015183;28;19921;-64
2022/01/15 11:05:37;;;;;;;;;;;2.30;96.10;;;1.80;100.00;100286.59;5014403;28;19917;-65
2022/01/15 11:08:08;;;;;;;;;;;2.30;96.10;;;1.52;100.00;100259.19;5014800;28;19921;-73
2022/01/15 11:10:54;;;;;;;;;;;2.30;96.00;;;1.65;100.00;100280.09;5013955;28;19913;-72
2022/01/15 11:13:23;;;;;;;;;;;2.30;96.10;;;1.81;100.00;100291.63;4997987;28;19976;-76
2022/01/15 11:15:54;;;;;;;;;;;2.40;96.20;;;1.82;100.00;100280.56;5015293;28;19925;-74
2022/01/15 11:18:31;;;;;;;;;;;2.40;96.30;;;1.89;100.00;100277.03;5014454;28;20000;-77
2022/01/15 11:21:02;;;;;;;;;;;2.50;96.40;;;1.89;100.00;100282.09;5014225;28;19944;-77